createdAt,value
2018-11-13T00:01:50.206Z,13.39
2018-11-13T00:04:19.926Z,13.51
2018-11-13T00:06:49.735Z,13.50
2018-11-13T00:09:19.488Z,13.42
2018-11-13T00:11:49.198Z,13.37
2018-11-13T00:14:19.072Z,13.31
2018-11-13T00:16:49.125Z,13.19
2018-11-13T00:19:18.987Z,13.30
2018-11-13T00:21:48.927Z,13.28
2018-11-13T00:24:19.483Z,13.31
2018-11-13T00:26:49.362Z,13.24
2018-11-13T00:29:19.103Z,13.27
2018-11-13T00:31:48.998Z,13.32
2018-11-13T00:34:18.882Z,13.33
2018-11-13T00:36:49.023Z,13.36
2018-11-13T00:39:19.144Z,13.46
2018-11-13T00:41:49.494Z,13.26
2018-11-13T00:44:19.388Z,13.24
2018-11-13T00:46:49.588Z,13.22
2018-11-13T00:49:19.462Z,13.11
2018-11-13T00:51:49.227Z,13.10
2018-11-13T00:54:19.154Z,12.99
2018-11-13T00:57:03.401Z,12.88
2018-11-13T00:59:33.208Z,12.75
2018-11-13T01:02:02.984Z,12.67
2018-11-13T01:04:32.831Z,12.51
2018-11-13T01:07:02.896Z,12.58
2018-11-13T01:09:32.823Z,12.50
2018-11-13T01:12:02.788Z,12.36
2018-11-13T01:14:32.681Z,12.33
2018-11-13T01:17:02.377Z,12.35
2018-11-13T01:19:32.179Z,12.28
2018-11-13T01:22:01.927Z,12.24
2018-11-13T01:24:31.764Z,12.21
2018-11-13T01:27:01.598Z,12.04
2018-11-13T01:29:31.383Z,12.06
2018-11-13T01:32:01.291Z,12.02
2018-11-13T01:34:31.301Z,12.08
2018-11-13T01:37:01.195Z,12.10
2018-11-13T01:39:30.961Z,12.17
2018-11-13T01:42:00.903Z,12.16
2018-11-13T01:44:30.597Z,12.27
2018-11-13T01:47:00.352Z,12.28
2018-11-13T01:49:30.058Z,12.33
2018-11-13T01:52:01.598Z,12.46
2018-11-13T01:54:31.693Z,12.53
2018-11-13T01:57:01.574Z,12.61
2018-11-13T01:59:31.492Z,12.65
2018-11-13T02:02:03.727Z,12.65
2018-11-13T02:04:37.312Z,12.68
2018-11-13T02:07:08.466Z,12.61
2018-11-13T02:09:38.286Z,12.59
2018-11-13T02:12:08.067Z,12.64
2018-11-13T02:17:46.193Z,12.61
2018-11-13T02:20:18.318Z,12.56
2018-11-13T02:22:47.820Z,12.58
2018-11-13T02:25:18.531Z,12.58
2018-11-13T02:27:48.694Z,12.43
2018-11-13T02:30:20.912Z,12.41
2018-11-13T02:32:50.608Z,12.42
2018-11-13T02:35:20.416Z,12.43
2018-11-13T02:37:49.807Z,12.53
2018-11-13T02:40:19.343Z,12.48
2018-11-13T02:42:48.899Z,12.47
2018-11-13T02:45:19.930Z,12.49
2018-11-13T02:47:49.546Z,12.52
2018-11-13T02:50:21.174Z,12.45
2018-11-13T02:52:50.915Z,12.38
2018-11-13T02:55:20.370Z,12.40
2018-11-13T02:57:49.965Z,12.48
2018-11-13T03:00:21.882Z,12.45
2018-11-13T03:02:52.221Z,12.46
2018-11-13T03:05:22.465Z,12.53
2018-11-13T03:07:52.001Z,12.59
2018-11-13T03:10:21.734Z,12.50
2018-11-13T03:12:51.213Z,12.62
2018-11-13T03:15:21.871Z,12.58
2018-11-13T03:17:51.654Z,12.58
2018-11-13T03:20:21.692Z,12.61
2018-11-13T03:22:51.481Z,12.68
2018-11-13T03:25:22.482Z,12.64
2018-11-13T03:27:52.470Z,12.71
2018-11-13T03:33:12.766Z,12.81
2018-11-13T03:35:42.498Z,12.76
2018-11-13T03:38:12.411Z,12.68
2018-11-13T03:40:42.377Z,12.72
2018-11-13T03:43:12.237Z,12.79
2018-11-13T03:45:42.004Z,12.76
2018-11-13T03:48:11.929Z,12.71
2018-11-13T03:50:41.686Z,12.79
2018-11-13T03:53:11.882Z,12.85
2018-11-13T03:55:41.800Z,12.94
2018-11-13T03:58:11.708Z,12.95
2018-11-13T04:00:41.566Z,13.01
2018-11-13T04:03:11.702Z,12.88
2018-11-13T04:05:41.707Z,12.88
2018-11-13T04:08:11.467Z,12.92
2018-11-13T04:10:41.282Z,12.94
2018-11-13T04:13:11.875Z,12.95
2018-11-13T04:15:41.875Z,12.99
2018-11-13T04:18:11.619Z,12.98
2018-11-13T04:20:41.511Z,13.01
2018-11-13T04:23:11.498Z,13.07
2018-11-13T04:25:41.569Z,13.02
2018-11-13T04:28:11.874Z,12.94
2018-11-13T04:30:41.997Z,12.90
2018-11-13T04:33:12.173Z,12.92
2018-11-13T04:35:42.167Z,12.95
2018-11-13T04:38:12.381Z,12.96
2018-11-13T04:40:42.622Z,13.00
2018-11-13T04:43:12.648Z,13.00
2018-11-13T04:45:42.776Z,13.01
2018-11-13T04:48:12.578Z,13.05
2018-11-13T04:50:42.393Z,13.08
2018-11-13T04:53:12.395Z,13.09
2018-11-13T04:55:42.678Z,13.07
2018-11-13T04:58:12.942Z,13.05
2018-11-13T05:00:43.309Z,12.98
2018-11-13T05:03:13.987Z,12.98
2018-11-13T05:05:43.840Z,12.98
2018-11-13T05:08:19.107Z,12.98
2018-11-13T05:10:50.075Z,13.02
2018-11-13T05:13:20.195Z,13.03
2018-11-13T05:15:50.212Z,13.03
2018-11-13T05:18:20.462Z,13.03
2018-11-13T05:20:53.743Z,13.09
2018-11-13T05:23:24.781Z,13.09
2018-11-13T05:25:55.366Z,13.09
2018-11-13T05:28:26.386Z,13.09
2018-11-13T05:30:59.709Z,13.06
2018-11-13T05:33:31.059Z,13.03
2018-11-13T05:36:00.988Z,13.02
2018-11-13T05:38:30.836Z,13.03
2018-11-13T05:41:02.694Z,13.04
2018-11-13T05:43:33.897Z,13.05
2018-11-13T05:46:04.398Z,13.05
2018-11-13T05:48:34.402Z,13.03
2018-11-13T05:51:04.236Z,13.05
2018-11-13T05:53:34.391Z,13.06
2018-11-13T05:56:04.418Z,13.12
2018-11-13T05:58:34.753Z,13.15
2018-11-13T06:01:04.716Z,13.13
2018-11-13T06:03:34.649Z,13.12
2018-11-13T06:06:04.580Z,13.12
2018-11-13T06:08:35.966Z,13.05
2018-11-13T06:11:07.279Z,13.00
2018-11-13T06:13:38.290Z,12.92
2018-11-13T06:16:09.033Z,12.82
2018-11-13T06:18:40.623Z,12.59
2018-11-13T06:21:11.237Z,12.54
2018-11-13T06:23:42.134Z,12.52
2018-11-13T06:26:13.136Z,12.48
2018-11-13T06:28:43.662Z,12.40
2018-11-13T06:31:13.793Z,12.36
2018-11-13T06:33:43.561Z,12.33
2018-11-13T06:36:13.421Z,12.33
2018-11-13T06:38:43.260Z,12.36
2018-11-13T06:41:13.174Z,12.45
2018-11-13T06:43:43.105Z,12.45
2018-11-13T06:46:12.970Z,12.48
2018-11-13T06:48:42.726Z,12.51
2018-11-13T06:51:16.727Z,12.56
2018-11-13T06:53:57.785Z,12.54
2018-11-13T06:56:34.743Z,12.64
2018-11-13T06:59:04.763Z,12.63
2018-11-13T07:01:34.850Z,12.71
2018-11-13T07:04:07.566Z,12.66
2018-11-13T07:06:41.139Z,12.71
2018-11-13T07:09:13.983Z,12.74
2018-11-13T07:11:46.903Z,12.80
2018-11-13T07:14:17.193Z,12.82
2018-11-13T07:16:48.138Z,12.83
2018-11-13T07:19:19.821Z,12.84
2018-11-13T07:21:51.745Z,12.79
2018-11-13T07:24:24.636Z,12.73
2018-11-13T07:26:54.797Z,12.78
2018-11-13T07:29:24.837Z,12.83
2018-11-13T07:31:55.965Z,12.85
2018-11-13T07:34:26.160Z,12.81
2018-11-13T07:36:56.272Z,12.83
2018-11-13T07:39:27.159Z,12.78
2018-11-13T07:41:57.076Z,12.82
2018-11-13T07:44:31.127Z,12.79
2018-11-13T07:47:02.276Z,12.88
2018-11-13T07:49:32.176Z,12.89
2018-11-13T07:52:02.045Z,12.94
2018-11-13T07:54:32.415Z,13.00
2018-11-13T07:57:02.517Z,13.10
2018-11-13T07:59:32.466Z,13.21
2018-11-13T08:02:02.557Z,13.26
2018-11-13T08:04:33.922Z,13.29
2018-11-13T08:07:04.779Z,13.29
2018-11-13T08:09:34.828Z,13.27
2018-11-13T08:12:04.898Z,13.30
2018-11-13T08:14:34.886Z,13.27
2018-11-13T08:17:05.067Z,13.28
2018-11-13T08:19:35.145Z,13.20
2018-11-13T08:22:05.442Z,13.10
2018-11-13T08:24:35.791Z,12.99
2018-11-13T08:27:06.749Z,13.08
2018-11-13T08:29:38.507Z,12.98
2018-11-13T08:32:10.521Z,12.97
2018-11-13T08:34:41.521Z,12.97
2018-11-13T08:37:11.527Z,13.01
2018-11-13T08:39:42.020Z,12.95
2018-11-13T08:42:12.004Z,12.93
2018-11-13T08:44:41.929Z,12.96
2018-11-13T08:47:11.992Z,13.00
2018-11-13T08:49:42.636Z,12.93
2018-11-13T08:52:12.637Z,13.00
2018-11-13T08:54:42.445Z,13.10
2018-11-13T08:57:12.542Z,13.12
2018-11-13T08:59:43.380Z,13.19
2018-11-13T09:02:13.741Z,13.21
2018-11-13T09:04:43.946Z,13.22
2018-11-13T09:07:13.980Z,13.23
2018-11-13T09:09:44.543Z,13.28
2018-11-13T09:12:14.949Z,13.32
2018-11-13T09:14:45.159Z,13.29
2018-11-13T09:17:14.921Z,13.38
2018-11-13T09:19:45.083Z,13.35
2018-11-13T09:22:14.920Z,13.43
2018-11-13T09:24:45.551Z,13.49
2018-11-13T09:27:15.712Z,13.57
2018-11-13T09:29:45.874Z,13.50
2018-11-13T09:32:16.666Z,13.46
2018-11-13T09:34:46.768Z,13.55
2018-11-13T09:37:17.630Z,13.60
2018-11-13T09:39:49.241Z,13.59
2018-11-13T09:42:19.008Z,13.58
2018-11-13T09:44:48.927Z,13.59
2018-11-13T09:47:18.886Z,13.56
2018-11-13T09:49:48.970Z,13.63
2018-11-13T09:52:20.545Z,13.57
2018-11-13T09:54:55.571Z,13.63
2018-11-13T09:57:25.391Z,13.57
2018-11-13T10:00:00.138Z,13.51
2018-11-13T10:02:30.783Z,13.45
2018-11-13T10:05:01.487Z,13.48
2018-11-13T10:07:34.078Z,13.43
2018-11-13T10:10:05.504Z,13.46
2018-11-13T10:12:35.739Z,13.42
2018-11-13T10:15:09.595Z,13.36
2018-11-13T10:17:39.916Z,13.30
2018-11-13T10:20:12.045Z,13.31
2018-11-13T10:22:44.322Z,13.30
2018-11-13T10:25:15.785Z,13.27
2018-11-13T10:27:45.934Z,13.36
2018-11-13T10:30:18.390Z,13.36
2018-11-13T10:32:49.704Z,13.39
2018-11-13T10:35:21.315Z,13.34
2018-11-13T10:37:52.413Z,13.33
2018-11-13T10:40:23.344Z,13.38
2018-11-13T10:42:54.654Z,13.38
2018-11-13T10:45:26.081Z,13.49
2018-11-13T10:47:56.687Z,13.48
2018-11-13T10:50:27.751Z,13.52
2018-11-13T10:52:58.117Z,13.48
2018-11-13T10:55:28.051Z,13.45
2018-11-13T10:57:57.995Z,13.47
2018-11-13T11:00:33.039Z,13.31
2018-11-13T11:03:10.167Z,13.18
2018-11-13T11:05:40.324Z,13.07
2018-11-13T11:08:10.544Z,13.03
2018-11-13T11:10:41.114Z,13.04
2018-11-13T11:13:11.221Z,12.99
2018-11-13T11:15:41.260Z,12.86
2018-11-13T11:18:11.586Z,12.60
2018-11-13T11:20:41.837Z,12.44
2018-11-13T11:23:12.567Z,12.34
2018-11-13T11:25:42.749Z,12.24
2018-11-13T11:28:12.995Z,12.12
2018-11-13T11:30:43.054Z,12.02
2018-11-13T11:33:13.573Z,11.94
2018-11-13T11:35:44.595Z,11.98
2018-11-13T11:38:18.485Z,12.08
2018-11-13T11:40:49.251Z,12.15
2018-11-13T11:43:19.829Z,12.23
2018-11-13T11:45:49.791Z,12.30
2018-11-13T11:48:20.008Z,12.23
2018-11-13T11:50:50.085Z,12.24
2018-11-13T11:53:20.069Z,12.30
2018-11-13T11:55:50.705Z,12.28
2018-11-13T11:58:20.756Z,12.30
2018-11-13T12:00:50.837Z,12.34
2018-11-13T12:03:21.698Z,12.48
2018-11-13T12:05:52.340Z,12.61
2018-11-13T12:08:22.357Z,12.63
2018-11-13T12:10:52.223Z,12.68
2018-11-13T12:13:22.044Z,12.78
2018-11-13T12:15:52.643Z,12.78
2018-11-13T12:18:22.953Z,12.76
2018-11-13T12:20:53.438Z,12.79
2018-11-13T12:23:23.466Z,12.89
2018-11-13T12:25:53.940Z,13.02
2018-11-13T12:31:14.966Z,13.05
2018-11-13T12:33:45.396Z,13.16
2018-11-13T12:36:15.301Z,13.34
2018-11-13T12:38:45.258Z,13.55
2018-11-13T12:41:15.499Z,13.85
2018-11-13T12:43:46.337Z,14.22
2018-11-13T12:46:18.107Z,14.46
2018-11-13T12:48:50.156Z,14.40
2018-11-13T12:51:26.232Z,14.23
2018-11-13T12:53:58.474Z,14.02
2018-11-13T12:56:31.705Z,13.96
2018-11-13T12:59:03.141Z,14.02
2018-11-13T13:01:36.435Z,14.07
2018-11-13T13:04:08.372Z,14.15
2018-11-13T13:06:42.191Z,14.18
2018-11-13T13:09:17.031Z,14.27
2018-11-13T13:11:48.768Z,14.31
2018-11-13T13:14:22.502Z,14.34
2018-11-13T13:16:55.443Z,14.32
2018-11-13T13:19:26.679Z,14.18
2018-11-13T13:21:58.783Z,14.19
2018-11-13T13:24:30.329Z,14.16
2018-11-13T13:27:00.550Z,14.24
2018-11-13T13:29:33.840Z,14.48
2018-11-13T13:32:05.483Z,14.81
2018-11-13T13:34:35.806Z,15.13
2018-11-13T13:37:05.935Z,15.35
2018-11-13T13:39:36.134Z,15.52
2018-11-13T13:42:06.109Z,15.41
2018-11-13T13:44:36.899Z,15.16
2018-11-13T13:47:07.159Z,15.14
2018-11-13T13:49:37.564Z,15.00
2018-11-13T13:52:07.855Z,14.65
2018-11-13T13:54:37.738Z,14.51
2018-11-13T13:57:08.648Z,14.54
2018-11-13T13:59:38.699Z,14.44
2018-11-13T14:02:08.963Z,14.42
2018-11-13T14:04:39.020Z,14.58
2018-11-13T14:07:09.176Z,14.45
2018-11-13T14:09:39.013Z,14.24
2018-11-13T14:12:09.067Z,14.09
2018-11-13T14:14:39.192Z,14.02
2018-11-13T14:17:09.361Z,13.91
2018-11-13T14:19:39.461Z,13.75
2018-11-13T14:22:09.442Z,13.80
2018-11-13T14:24:39.515Z,13.82
2018-11-13T14:27:09.505Z,13.87
2018-11-13T14:29:40.250Z,13.84
2018-11-13T14:32:10.719Z,13.85
2018-11-13T14:34:40.888Z,13.78
2018-11-13T14:37:10.935Z,13.80
2018-11-13T14:39:42.371Z,13.75
2018-11-13T14:42:13.352Z,13.71
2018-11-13T14:44:43.459Z,13.55
2018-11-13T14:47:13.764Z,13.48
2018-11-13T14:49:43.679Z,13.39
2018-11-13T14:52:13.919Z,13.26
2018-11-13T14:54:43.773Z,13.20
2018-11-13T14:57:21.649Z,13.18
2018-11-13T14:59:54.765Z,13.18
2018-11-13T15:02:24.476Z,13.13
2018-11-13T15:04:54.365Z,13.09
2018-11-13T15:07:24.231Z,13.03
2018-11-13T15:09:54.533Z,12.83
2018-11-13T15:12:24.509Z,12.72
2018-11-13T15:14:55.503Z,12.72
2018-11-13T15:17:25.457Z,12.55
2018-11-13T15:19:55.602Z,12.48
2018-11-13T15:22:26.519Z,12.51
2018-11-13T15:24:56.864Z,12.40
2018-11-13T15:27:27.314Z,12.29
2018-11-13T15:30:00.087Z,12.28
2018-11-13T15:32:31.444Z,12.16
2018-11-13T15:35:03.204Z,12.18
2018-11-13T15:37:35.199Z,12.09
2018-11-13T15:40:10.388Z,12.05
2018-11-13T15:42:41.427Z,11.98
2018-11-13T15:45:12.576Z,11.92
2018-11-13T15:47:45.719Z,11.79
2018-11-13T15:50:18.725Z,11.71
2018-11-13T15:52:48.895Z,11.65
2018-11-13T15:55:19.589Z,11.53
2018-11-13T15:57:50.028Z,11.48
2018-11-13T16:00:23.592Z,11.42
2018-11-13T16:02:54.781Z,11.40
2018-11-13T16:05:29.288Z,11.37
2018-11-13T16:08:00.133Z,11.32
2018-11-13T16:10:30.882Z,11.27
2018-11-13T16:13:01.217Z,11.26
2018-11-13T16:15:31.597Z,11.30
2018-11-13T16:18:06.464Z,11.31
2018-11-13T16:20:36.828Z,11.29
2018-11-13T16:23:07.274Z,11.31
2018-11-13T16:25:37.650Z,11.40
2018-11-13T16:28:07.942Z,11.39
2018-11-13T16:30:39.365Z,11.46
2018-11-13T16:33:09.515Z,11.57
2018-11-13T16:35:40.139Z,11.62
2018-11-13T16:38:12.179Z,11.70
2018-11-13T16:40:42.268Z,11.68
2018-11-13T16:43:13.755Z,11.66
2018-11-13T16:45:44.199Z,11.71
2018-11-13T16:48:15.763Z,11.82
2018-11-13T16:50:45.726Z,11.98
2018-11-13T16:53:15.871Z,12.01
2018-11-13T16:55:51.798Z,12.00
2018-11-13T16:58:22.159Z,12.04
2018-11-13T17:00:52.068Z,12.03
2018-11-13T17:03:22.346Z,12.13
2018-11-13T17:05:57.608Z,12.17
2018-11-13T17:08:27.747Z,12.03
2018-11-13T17:10:57.668Z,11.44
2018-11-13T17:13:27.709Z,10.94
2018-11-13T17:15:57.704Z,10.61
2018-11-13T17:18:27.831Z,10.49
2018-11-13T17:20:58.463Z,10.37
2018-11-13T17:23:28.647Z,10.23
2018-11-13T17:25:58.682Z,10.03
2018-11-13T17:28:28.608Z,9.95
2018-11-13T17:30:58.446Z,9.91
2018-11-13T17:33:30.284Z,9.84
2018-11-13T17:36:00.796Z,9.78
2018-11-13T17:38:33.087Z,9.77
2018-11-13T17:41:03.342Z,9.80
2018-11-13T17:43:33.668Z,9.73
2018-11-13T17:46:04.531Z,9.67
2018-11-13T17:48:37.849Z,9.68
2018-11-13T17:51:08.095Z,9.68
2018-11-13T17:53:39.817Z,9.66
2018-11-13T17:56:12.576Z,9.63
2018-11-13T17:58:42.779Z,9.59
2018-11-13T18:01:14.317Z,9.55
2018-11-13T18:03:44.876Z,9.55
2018-11-13T18:06:16.345Z,9.55
2018-11-13T18:08:46.391Z,9.53
2018-11-13T18:11:16.922Z,9.53
2018-11-13T18:13:47.409Z,9.50
2018-11-13T18:16:17.728Z,9.45
2018-11-13T18:18:48.686Z,9.40
2018-11-13T18:21:20.284Z,9.36
2018-11-13T18:23:53.069Z,9.35
2018-11-13T18:26:25.739Z,9.35
2018-11-13T18:28:58.777Z,9.34
2018-11-13T18:31:31.368Z,9.32
2018-11-13T18:34:02.546Z,9.30
2018-11-13T18:36:35.036Z,9.27
2018-11-13T18:39:09.569Z,9.23
2018-11-13T18:41:40.064Z,9.24
2018-11-13T18:44:10.424Z,9.31
2018-11-13T18:46:40.446Z,9.32
2018-11-13T18:49:10.332Z,9.31
2018-11-13T18:51:40.366Z,9.26
2018-11-13T18:54:11.268Z,9.26
2018-11-13T18:56:42.022Z,9.22
2018-11-13T18:59:12.228Z,9.22
2018-11-13T19:01:42.247Z,9.18
2018-11-13T19:04:12.147Z,9.15
2018-11-13T19:06:42.088Z,9.13
2018-11-13T19:09:13.612Z,9.12
2018-11-13T19:11:43.694Z,9.15
2018-11-13T19:14:13.647Z,9.10
2018-11-13T19:16:43.974Z,9.06
2018-11-13T19:19:14.038Z,9.09
2018-11-13T19:21:44.925Z,8.99
2018-11-13T19:32:46.847Z,8.78
2018-11-13T19:35:18.026Z,8.76
2018-11-13T19:37:48.143Z,8.71
2018-11-13T19:40:21.485Z,8.70
2018-11-13T19:42:52.922Z,8.66
2018-11-13T19:45:25.018Z,8.64
2018-11-13T19:47:55.193Z,8.59
2018-11-13T19:50:26.792Z,8.53
2018-11-13T19:52:56.536Z,8.53
2018-11-13T19:55:27.168Z,8.52
2018-11-13T19:57:57.155Z,8.48
2018-11-13T20:00:29.333Z,8.42
2018-11-13T20:03:02.928Z,8.41
2018-11-13T20:05:33.945Z,8.37
2018-11-13T20:08:05.258Z,8.40
2018-11-13T20:10:36.005Z,8.43
2018-11-13T20:13:06.633Z,8.43
2018-11-13T20:15:37.518Z,8.47
2018-11-13T20:18:10.081Z,8.45
2018-11-13T20:20:40.050Z,8.43
2018-11-13T20:23:12.768Z,8.42
2018-11-13T20:25:47.699Z,8.43
2018-11-13T20:28:17.784Z,8.45
2018-11-13T20:30:49.398Z,8.49
2018-11-13T20:33:21.301Z,8.53
2018-11-13T20:35:53.074Z,8.56
2018-11-13T20:38:23.016Z,8.58
2018-11-13T20:40:53.494Z,8.58
2018-11-13T20:43:24.231Z,8.76
2018-11-13T20:45:57.673Z,8.66
2018-11-13T20:48:27.668Z,8.67
2018-11-13T20:50:58.059Z,8.67
2018-11-13T20:53:27.975Z,8.69
2018-11-13T20:56:01.394Z,8.70
2018-11-13T20:58:32.605Z,8.74
2018-11-13T21:01:05.695Z,8.77
2018-11-13T21:03:39.331Z,8.79
2018-11-13T21:06:09.167Z,8.78
2018-11-13T21:08:39.225Z,8.87
2018-11-13T21:11:09.208Z,8.90
2018-11-13T21:13:39.001Z,8.88
2018-11-13T21:16:09.103Z,9.02
2018-11-13T21:18:40.858Z,8.95
2018-11-13T21:21:12.157Z,8.92
2018-11-13T21:23:42.271Z,8.93
2018-11-13T21:26:28.831Z,8.86
2018-11-13T21:28:59.984Z,8.80
2018-11-13T21:31:30.132Z,8.84
2018-11-13T21:34:01.979Z,8.80
2018-11-13T21:36:32.599Z,8.79
2018-11-13T21:39:02.919Z,8.76
2018-11-13T21:41:34.373Z,8.82
2018-11-13T21:44:04.549Z,8.83
2018-11-13T21:46:35.324Z,8.92
2018-11-13T21:49:05.967Z,8.92
2018-11-13T21:51:37.534Z,8.91
2018-11-13T21:54:08.648Z,8.88
2018-11-13T21:56:38.909Z,8.81
2018-11-13T21:59:09.185Z,8.91
2018-11-13T22:01:40.458Z,8.96
2018-11-13T22:04:10.726Z,8.94
2018-11-13T22:06:40.798Z,8.90
2018-11-13T22:09:12.222Z,8.90
2018-11-13T22:11:42.398Z,8.88
2018-11-13T22:14:12.569Z,8.94
2018-11-13T22:16:43.399Z,8.88
2018-11-13T22:19:13.058Z,8.84
2018-11-13T22:21:43.326Z,8.92
2018-11-13T22:24:13.328Z,8.91
2018-11-13T22:26:43.348Z,8.87
2018-11-13T22:29:13.679Z,8.94
2018-11-13T22:31:43.708Z,8.86
2018-11-13T22:34:13.559Z,8.81
2018-11-13T22:36:43.491Z,8.91
2018-11-13T22:39:13.750Z,8.97
2018-11-13T22:41:43.710Z,8.97
2018-11-13T22:44:13.654Z,8.96
2018-11-13T22:46:43.707Z,9.01
2018-11-13T22:49:13.803Z,9.03
2018-11-13T22:51:43.748Z,9.01
2018-11-13T22:54:13.692Z,8.94
2018-11-13T22:56:43.945Z,9.02
2018-11-13T22:59:13.973Z,9.02
2018-11-13T23:01:44.503Z,9.00
2018-11-13T23:04:14.392Z,8.97
2018-11-13T23:06:44.400Z,8.92
2018-11-13T23:09:14.813Z,8.92
2018-11-13T23:11:45.235Z,8.91
2018-11-13T23:14:15.563Z,8.92
2018-11-13T23:16:45.339Z,8.92
2018-11-13T23:19:15.190Z,8.90
2018-11-13T23:21:44.990Z,8.87
2018-11-13T23:24:14.889Z,8.88
2018-11-13T23:26:44.918Z,8.86
2018-11-13T23:29:16.715Z,8.77
2018-11-13T23:31:46.706Z,8.80
2018-11-13T23:34:16.957Z,8.83
2018-11-13T23:36:47.190Z,8.74
2018-11-13T23:39:17.099Z,8.71
2018-11-13T23:41:47.273Z,8.68
2018-11-13T23:44:17.947Z,8.66
2018-11-13T23:46:47.960Z,8.65
2018-11-13T23:49:18.184Z,8.62
2018-11-13T23:51:48.242Z,8.56
2018-11-13T23:54:22.023Z,8.62
2018-11-13T23:56:52.093Z,8.59
